sensor_id;sensor_type;location;lat;lon;timestamp;temperature;humidity
5200;DHT22;2619;47.868;11.892;2023-12-28T00:01:26;-1.10;99.90
5200;DHT22;2619;47.868;11.892;2023-12-28T00:03:51;-1.10;99.90
5200;DHT22;2619;47.868;11.892;2023-12-28T00:06:17;-1.10;99.90
5200;DHT22;2619;47.868;11.892;2023-12-28T00:08:42;-1.10;99.90
5200;DHT22;2619;47.868;11.892;2023-12-28T00:11:08;-1.20;99.90
5200;DHT22;2619;47.868;11.892;2023-12-28T00:13:34;-1.20;99.90
5200;DHT22;2619;47.868;11.892;2023-12-28T00:15:59;-1.20;99.90
5200;DHT22;2619;47.868;11.892;2023-12-28T00:18:25;-1.20;99.90
5200;DHT22;2619;47.868;11.892;2023-12-28T00:20:51;-1.30;99.90
5200;DHT22;2619;47.868;11.892;2023-12-28T00:23:16;-1.40;99.90
5200;DHT22;2619;47.868;11.892;2023-12-28T00:25:42;-1.40;99.90
5200;DHT22;2619;47.868;11.892;2023-12-28T00:28:07;-1.30;99.90
5200;DHT22;2619;47.868;11.892;2023-12-28T00:30:33;-1.30;99.90
5200;DHT22;2619;47.868;11.892;2023-12-28T00:32:59;-1.20;99.90
5200;DHT22;2619;47.868;11.892;2023-12-28T00:35:24;-1.20;99.90
5200;DHT22;2619;47.868;11.892;2023-12-28T00:37:50;-1.20;99.90
5200;DHT22;2619;47.868;11.892;2023-12-28T00:40:15;-1.20;99.90
5200;DHT22;2619;47.868;11.892;2023-12-28T00:42:41;-1.20;99.90
5200;DHT22;2619;47.868;11.892;2023-12-28T00:45:08;-1.30;99.90
5200;DHT22;2619;47.868;11.892;2023-12-28T00:47:33;-1.30;99.90
5200;DHT22;2619;47.868;11.892;2023-12-28T00:49:59;-1.30;99.90
5200;DHT22;2619;47.868;11.892;2023-12-28T00:52:25;-1.30;99.90
5200;DHT22;2619;47.868;11.892;2023-12-28T00:54:50;-1.40;99.90
5200;DHT22;2619;47.868;11.892;2023-12-28T00:57:16;-1.50;99.90
5200;DHT22;2619;47.868;11.892;2023-12-28T00:59:41;-1.40;99.90
5200;DHT22;2619;47.868;11.892;2023-12-28T01:02:07;-1.40;99.90
5200;DHT22;2619;47.868;11.892;2023-12-28T01:04:33;-1.40;99.90
5200;DHT22;2619;47.868;11.892;2023-12-28T01:06:58;-1.30;99.90
5200;DHT22;2619;47.868;11.892;2023-12-28T01:09:27;-1.40;99.90
5200;DHT22;2619;47.868;11.892;2023-12-28T01:11:53;-1.40;99.90
5200;DHT22;2619;47.868;11.892;2023-12-28T01:14:18;-1.30;99.90
5200;DHT22;2619;47.868;11.892;2023-12-28T01:16:44;-1.30;99.90
5200;DHT22;2619;47.868;11.892;2023-12-28T01:19:10;-1.30;99.90
5200;DHT22;2619;47.868;11.892;2023-12-28T01:21:35;-1.20;99.90
5200;DHT22;2619;47.868;11.892;2023-12-28T01:24:01;-1.30;99.90
5200;DHT22;2619;47.868;11.892;2023-12-28T01:26:26;-1.30;99.90
5200;DHT22;2619;47.868;11.892;2023-12-28T01:28:52;-1.20;99.90
5200;DHT22;2619;47.868;11.892;2023-12-28T01:31:17;-1.20;99.90
5200;DHT22;2619;47.868;11.892;2023-12-28T01:33:43;-1.20;99.90
5200;DHT22;2619;47.868;11.892;2023-12-28T01:36:19;-1.20;99.90
5200;DHT22;2619;47.868;11.892;2023-12-28T01:38:45;-1.10;99.90
5200;DHT22;2619;47.868;11.892;2023-12-28T01:41:11;-1.20;99.90
5200;DHT22;2619;47.868;11.892;2023-12-28T01:43:38;-1.10;99.90
5200;DHT22;2619;47.868;11.892;2023-12-28T01:46:08;-1.10;99.90
5200;DHT22;2619;47.868;11.892;2023-12-28T01:48:36;-1.10;99.90
5200;DHT22;2619;47.868;11.892;2023-12-28T01:51:02;-1.20;99.90
5200;DHT22;2619;47.868;11.892;2023-12-28T01:53:28;-1.20;99.90
5200;DHT22;2619;47.868;11.892;2023-12-28T01:55:54;-1.20;99.90
5200;DHT22;2619;47.868;11.892;2023-12-28T01:58:20;-1.20;99.90
5200;DHT22;2619;47.868;11.892;2023-12-28T02:00:47;-1.20;99.90
5200;DHT22;2619;47.868;11.892;2023-12-28T02:03:12;-1.20;99.90
5200;DHT22;2619;47.868;11.892;2023-12-28T02:05:38;-1.30;99.90
5200;DHT22;2619;47.868;11.892;2023-12-28T02:08:05;-1.40;99.90
5200;DHT22;2619;47.868;11.892;2023-12-28T02:10:30;-1.30;99.90
5200;DHT22;2619;47.868;11.892;2023-12-28T02:12:56;-1.30;99.90
5200;DHT22;2619;47.868;11.892;2023-12-28T02:15:22;-1.40;99.90
5200;DHT22;2619;47.868;11.892;2023-12-28T02:18:00;-1.40;99.90
5200;DHT22;2619;47.868;11.892;2023-12-28T02:20:29;-1.50;99.90
5200;DHT22;2619;47.868;11.892;2023-12-28T02:22:55;-1.50;99.90
5200;DHT22;2619;47.868;11.892;2023-12-28T02:25:21;-1.40;99.90
5200;DHT22;2619;47.868;11.892;2023-12-28T02:27:49;-1.40;99.90
5200;DHT22;2619;47.868;11.892;2023-12-28T02:30:17;-1.40;99.90
5200;DHT22;2619;47.868;11.892;2023-12-28T02:35:33;-1.50;99.90
5200;DHT22;2619;47.868;11.892;2023-12-28T02:38:02;-1.50;99.90
5200;DHT22;2619;47.868;11.892;2023-12-28T02:40:31;-1.50;99.90
5200;DHT22;2619;47.868;11.892;2023-12-28T02:43:00;-1.50;99.90
5200;DHT22;2619;47.868;11.892;2023-12-28T02:45:26;-1.60;99.90
5200;DHT22;2619;47.868;11.892;2023-12-28T02:47:52;-1.60;99.90
5200;DHT22;2619;47.868;11.892;2023-12-28T02:50:17;-1.60;99.90
5200;DHT22;2619;47.868;11.892;2023-12-28T02:52:43;-1.60;99.90
5200;DHT22;2619;47.868;11.892;2023-12-28T02:55:09;-1.60;99.90
5200;DHT22;2619;47.868;11.892;2023-12-28T02:57:34;-1.60;99.90
5200;DHT22;2619;47.868;11.892;2023-12-28T03:00:06;-1.60;99.90
5200;DHT22;2619;47.868;11.892;2023-12-28T03:02:36;-1.50;99.90
5200;DHT22;2619;47.868;11.892;2023-12-28T03:05:05;-1.40;99.90
5200;DHT22;2619;47.868;11.892;2023-12-28T03:07:32;-1.40;99.90
5200;DHT22;2619;47.868;11.892;2023-12-28T03:09:57;-1.50;99.90
5200;DHT22;2619;47.868;11.892;2023-12-28T03:12:23;-1.50;99.90
5200;DHT22;2619;47.868;11.892;2023-12-28T03:14:49;-1.50;99.90
5200;DHT22;2619;47.868;11.892;2023-12-28T03:17:15;-1.50;99.90
5200;DHT22;2619;47.868;11.892;2023-12-28T03:19:40;-1.50;99.90
5200;DHT22;2619;47.868;11.892;2023-12-28T03:22:06;-1.50;99.90
5200;DHT22;2619;47.868;11.892;2023-12-28T03:24:32;-1.60;99.90
5200;DHT22;2619;47.868;11.892;2023-12-28T03:26:58;-1.50;99.90
5200;DHT22;2619;47.868;11.892;2023-12-28T03:29:24;-1.60;99.90
5200;DHT22;2619;47.868;11.892;2023-12-28T03:31:49;-1.60;99.90
5200;DHT22;2619;47.868;11.892;2023-12-28T03:34:15;-1.60;99.90
5200;DHT22;2619;47.868;11.892;2023-12-28T03:36:41;-1.60;99.90
5200;DHT22;2619;47.868;11.892;2023-12-28T03:39:07;-1.60;99.90
5200;DHT22;2619;47.868;11.892;2023-12-28T03:41:33;-1.60;99.90
5200;DHT22;2619;47.868;11.892;2023-12-28T03:43:59;-1.50;99.90
5200;DHT22;2619;47.868;11.892;2023-12-28T03:46:24;-1.60;99.90
5200;DHT22;2619;47.868;11.892;2023-12-28T03:48:52;-1.60;99.90
5200;DHT22;2619;47.868;11.892;2023-12-28T03:51:18;-1.60;99.90
5200;DHT22;2619;47.868;11.892;2023-12-28T03:53:44;-1.70;99.90
5200;DHT22;2619;47.868;11.892;2023-12-28T03:56:21;-1.80;99.90
5200;DHT22;2619;47.868;11.892;2023-12-28T03:58:47;-1.70;99.90
5200;DHT22;2619;47.868;11.892;2023-12-28T04:01:13;-1.80;99.90
5200;DHT22;2619;47.868;11.892;2023-12-28T04:03:38;-1.80;99.90
5200;DHT22;2619;47.868;11.892;2023-12-28T04:06:04;-1.70;99.90
5200;DHT22;2619;47.868;11.892;2023-12-28T04:08:31;-1.80;99.90
5200;DHT22;2619;47.868;11.892;2023-12-28T04:10:56;-1.80;99.90
5200;DHT22;2619;47.868;11.892;2023-12-28T04:13:22;-1.80;99.90
5200;DHT22;2619;47.868;11.892;2023-12-28T04:15:47;-1.80;99.90
5200;DHT22;2619;47.868;11.892;2023-12-28T04:18:13;-1.80;99.90
5200;DHT22;2619;47.868;11.892;2023-12-28T04:20:38;-1.80;99.90
5200;DHT22;2619;47.868;11.892;2023-12-28T04:23:04;-1.90;99.90
5200;DHT22;2619;47.868;11.892;2023-12-28T04:25:29;-1.90;99.90
5200;DHT22;2619;47.868;11.892;2023-12-28T04:27:55;-1.90;99.90
5200;DHT22;2619;47.868;11.892;2023-12-28T04:30:20;-1.90;99.90
5200;DHT22;2619;47.868;11.892;2023-12-28T04:32:47;-1.80;99.90
5200;DHT22;2619;47.868;11.892;2023-12-28T04:35:12;-1.80;99.90
5200;DHT22;2619;47.868;11.892;2023-12-28T04:37:38;-1.90;99.90
5200;DHT22;2619;47.868;11.892;2023-12-28T04:40:04;-1.90;99.90
5200;DHT22;2619;47.868;11.892;2023-12-28T04:42:29;-1.90;99.90
5200;DHT22;2619;47.868;11.892;2023-12-28T04:44:55;-1.80;99.90
5200;DHT22;2619;47.868;11.892;2023-12-28T04:47:20;-1.80;99.90
5200;DHT22;2619;47.868;11.892;2023-12-28T04:49:46;-1.80;99.90
5200;DHT22;2619;47.868;11.892;2023-12-28T04:52:11;-1.80;99.90
5200;DHT22;2619;47.868;11.892;2023-12-28T04:54:40;-1.70;99.90
5200;DHT22;2619;47.868;11.892;2023-12-28T04:57:06;-1.80;99.90
5200;DHT22;2619;47.868;11.892;2023-12-28T04:59:38;-1.90;99.90
5200;DHT22;2619;47.868;11.892;2023-12-28T05:02:04;-1.90;99.90
5200;DHT22;2619;47.868;11.892;2023-12-28T05:04:30;-2.00;99.90
5200;DHT22;2619;47.868;11.892;2023-12-28T05:06:55;-2.00;99.90
5200;DHT22;2619;47.868;11.892;2023-12-28T05:09:21;-2.10;99.90
5200;DHT22;2619;47.868;11.892;2023-12-28T05:11:46;-2.10;99.90
5200;DHT22;2619;47.868;11.892;2023-12-28T05:14:12;-2.00;99.90
5200;DHT22;2619;47.868;11.892;2023-12-28T05:16:37;-2.00;99.90
5200;DHT22;2619;47.868;11.892;2023-12-28T05:19:03;-1.90;99.90
5200;DHT22;2619;47.868;11.892;2023-12-28T05:21:29;-2.00;99.90
5200;DHT22;2619;47.868;11.892;2023-12-28T05:23:54;-2.10;99.90
5200;DHT22;2619;47.868;11.892;2023-12-28T05:26:20;-2.20;99.90
5200;DHT22;2619;47.868;11.892;2023-12-28T05:28:46;-2.20;99.90
5200;DHT22;2619;47.868;11.892;2023-12-28T05:31:11;-2.10;99.90
5200;DHT22;2619;47.868;11.892;2023-12-28T05:33:38;-2.10;99.90
5200;DHT22;2619;47.868;11.892;2023-12-28T05:36:05;-2.20;99.90
5200;DHT22;2619;47.868;11.892;2023-12-28T05:38:30;-2.10;99.90
5200;DHT22;2619;47.868;11.892;2023-12-28T05:40:56;-2.20;99.90
5200;DHT22;2619;47.868;11.892;2023-12-28T05:43:22;-2.20;99.90
5200;DHT22;2619;47.868;11.892;2023-12-28T05:45:47;-2.10;99.90
5200;DHT22;2619;47.868;11.892;2023-12-28T05:48:13;-2.10;99.90
5200;DHT22;2619;47.868;11.892;2023-12-28T05:50:38;-2.10;99.90
5200;DHT22;2619;47.868;11.892;2023-12-28T05:53:05;-2.20;99.90
5200;DHT22;2619;47.868;11.892;2023-12-28T05:55:30;-2.20;99.90
5200;DHT22;2619;47.868;11.892;2023-12-28T05:57:56;-2.10;99.90
5200;DHT22;2619;47.868;11.892;2023-12-28T06:00:22;-2.20;99.90
5200;DHT22;2619;47.868;11.892;2023-12-28T06:02:47;-2.30;99.90
5200;DHT22;2619;47.868;11.892;2023-12-28T06:05:17;-2.20;99.90
5200;DHT22;2619;47.868;11.892;2023-12-28T06:07:42;-2.20;99.90
5200;DHT22;2619;47.868;11.892;2023-12-28T06:10:08;-2.00;99.90
5200;DHT22;2619;47.868;11.892;2023-12-28T06:12:34;-2.00;99.90
5200;DHT22;2619;47.868;11.892;2023-12-28T06:15:00;-2.10;99.90
5200;DHT22;2619;47.868;11.892;2023-12-28T06:17:26;-2.20;99.90
5200;DHT22;2619;47.868;11.892;2023-12-28T06:19:52;-2.20;99.90
5200;DHT22;2619;47.868;11.892;2023-12-28T06:22:18;-2.20;99.90
5200;DHT22;2619;47.868;11.892;2023-12-28T06:24:43;-2.20;99.90
5200;DHT22;2619;47.868;11.892;2023-12-28T06:27:09;-2.10;99.90
5200;DHT22;2619;47.868;11.892;2023-12-28T06:29:35;-2.10;99.90
5200;DHT22;2619;47.868;11.892;2023-12-28T06:32:00;-2.20;99.90
5200;DHT22;2619;47.868;11.892;2023-12-28T06:34:26;-2.20;99.90
5200;DHT22;2619;47.868;11.892;2023-12-28T06:36:52;-2.20;99.90
5200;DHT22;2619;47.868;11.892;2023-12-28T06:39:17;-2.20;99.90
5200;DHT22;2619;47.868;11.892;2023-12-28T06:41:47;-2.30;99.90
5200;DHT22;2619;47.868;11.892;2023-12-28T06:44:13;-2.20;99.90
5200;DHT22;2619;47.868;11.892;2023-12-28T06:46:40;-2.30;99.90
5200;DHT22;2619;47.868;11.892;2023-12-28T06:49:06;-2.40;99.90
5200;DHT22;2619;47.868;11.892;2023-12-28T06:51:31;-2.30;99.90
5200;DHT22;2619;47.868;11.892;2023-12-28T06:53:58;-2.20;99.90
5200;DHT22;2619;47.868;11.892;2023-12-28T06:56:24;-2.20;99.90
5200;DHT22;2619;47.868;11.892;2023-12-28T06:58:50;-2.10;99.90
5200;DHT22;2619;47.868;11.892;2023-12-28T07:01:15;-2.10;99.90
5200;DHT22;2619;47.868;11.892;2023-12-28T07:03:41;-2.10;99.90
5200;DHT22;2619;47.868;11.892;2023-12-28T07:06:07;-2.30;99.90
5200;DHT22;2619;47.868;11.892;2023-12-28T07:08:33;-2.50;99.90
5200;DHT22;2619;47.868;11.892;2023-12-28T07:10:59;-2.50;99.90
5200;DHT22;2619;47.868;11.892;2023-12-28T07:13:25;-2.40;99.90
5200;DHT22;2619;47.868;11.892;2023-12-28T07:15:51;-2.40;99.90
5200;DHT22;2619;47.868;11.892;2023-12-28T07:18:16;-2.40;99.90
5200;DHT22;2619;47.868;11.892;2023-12-28T07:20:42;-2.40;99.90
5200;DHT22;2619;47.868;11.892;2023-12-28T07:23:08;-2.50;99.90
5200;DHT22;2619;47.868;11.892;2023-12-28T07:25:34;-2.40;99.90
5200;DHT22;2619;47.868;11.892;2023-12-28T07:28:00;-2.40;99.90
5200;DHT22;2619;47.868;11.892;2023-12-28T07:30:25;-2.50;99.90
5200;DHT22;2619;47.868;11.892;2023-12-28T07:32:51;-2.40;99.90
5200;DHT22;2619;47.868;11.892;2023-12-28T07:35:17;-2.30;99.90
5200;DHT22;2619;47.868;11.892;2023-12-28T07:37:43;-2.20;99.90
5200;DHT22;2619;47.868;11.892;2023-12-28T07:40:11;-2.20;99.90
5200;DHT22;2619;47.868;11.892;2023-12-28T07:42:37;-2.20;99.90
5200;DHT22;2619;47.868;11.892;2023-12-28T07:45:03;-2.10;99.90
5200;DHT22;2619;47.868;11.892;2023-12-28T07:47:29;-2.10;99.90
5200;DHT22;2619;47.868;11.892;2023-12-28T07:49:54;-2.00;99.90
5200;DHT22;2619;47.868;11.892;2023-12-28T07:52:20;-1.80;99.90
5200;DHT22;2619;47.868;11.892;2023-12-28T07:54:46;-1.70;99.90
5200;DHT22;2619;47.868;11.892;2023-12-28T07:57:11;-1.60;99.90
5200;DHT22;2619;47.868;11.892;2023-12-28T07:59:37;-1.50;99.90
5200;DHT22;2619;47.868;11.892;2023-12-28T08:02:02;-1.40;99.90
5200;DHT22;2619;47.868;11.892;2023-12-28T08:04:28;-1.40;99.90
5200;DHT22;2619;47.868;11.892;2023-12-28T08:06:54;-1.30;99.90
5200;DHT22;2619;47.868;11.892;2023-12-28T08:09:19;-1.20;99.90
5200;DHT22;2619;47.868;11.892;2023-12-28T08:11:45;-1.20;99.90
5200;DHT22;2619;47.868;11.892;2023-12-28T08:14:11;-1.10;99.90
5200;DHT22;2619;47.868;11.892;2023-12-28T08:16:36;-0.90;99.90
5200;DHT22;2619;47.868;11.892;2023-12-28T08:19:02;-0.80;99.90
5200;DHT22;2619;47.868;11.892;2023-12-28T08:21:27;-0.60;99.90
5200;DHT22;2619;47.868;11.892;2023-12-28T08:23:53;-0.40;99.90
5200;DHT22;2619;47.868;11.892;2023-12-28T08:26:19;-0.30;99.90
5200;DHT22;2619;47.868;11.892;2023-12-28T08:28:45;-0.10;99.90
5200;DHT22;2619;47.868;11.892;2023-12-28T08:31:10;0.10;99.90
5200;DHT22;2619;47.868;11.892;2023-12-28T08:33:36;0.10;99.90
5200;DHT22;2619;47.868;11.892;2023-12-28T08:36:05;0.30;99.90
5200;DHT22;2619;47.868;11.892;2023-12-28T08:38:31;0.50;99.90
5200;DHT22;2619;47.868;11.892;2023-12-28T08:40:56;0.60;99.90
5200;DHT22;2619;47.868;11.892;2023-12-28T08:43:22;0.60;99.90
5200;DHT22;2619;47.868;11.892;2023-12-28T08:45:47;0.70;99.90
5200;DHT22;2619;47.868;11.892;2023-12-28T08:48:13;0.80;99.90
5200;DHT22;2619;47.868;11.892;2023-12-28T08:50:39;1.00;99.90
5200;DHT22;2619;47.868;11.892;2023-12-28T08:53:04;1.20;99.90
5200;DHT22;2619;47.868;11.892;2023-12-28T08:55:30;1.50;99.90
5200;DHT22;2619;47.868;11.892;2023-12-28T08:57:55;1.70;99.90
5200;DHT22;2619;47.868;11.892;2023-12-28T09:00:21;1.90;99.90
5200;DHT22;2619;47.868;11.892;2023-12-28T09:02:47;2.10;99.90
5200;DHT22;2619;47.868;11.892;2023-12-28T09:05:12;2.40;99.90
5200;DHT22;2619;47.868;11.892;2023-12-28T09:07:38;2.50;99.90
5200;DHT22;2619;47.868;11.892;2023-12-28T09:10:12;2.70;99.90
5200;DHT22;2619;47.868;11.892;2023-12-28T09:12:40;3.00;99.90
5200;DHT22;2619;47.868;11.892;2023-12-28T09:15:06;3.20;99.90
5200;DHT22;2619;47.868;11.892;2023-12-28T09:17:32;3.30;99.90
5200;DHT22;2619;47.868;11.892;2023-12-28T09:19:58;3.60;99.90
5200;DHT22;2619;47.868;11.892;2023-12-28T09:22:24;3.80;99.90
5200;DHT22;2619;47.868;11.892;2023-12-28T09:24:50;3.90;99.90
5200;DHT22;2619;47.868;11.892;2023-12-28T09:27:15;4.10;99.90
5200;DHT22;2619;47.868;11.892;2023-12-28T09:29:41;4.10;99.90
5200;DHT22;2619;47.868;11.892;2023-12-28T09:32:06;4.20;99.90
5200;DHT22;2619;47.868;11.892;2023-12-28T09:34:32;4.40;99.90
5200;DHT22;2619;47.868;11.892;2023-12-28T09:36:58;4.50;99.90
5200;DHT22;2619;47.868;11.892;2023-12-28T09:39:24;4.50;99.90
5200;DHT22;2619;47.868;11.892;2023-12-28T09:41:55;4.60;99.90
5200;DHT22;2619;47.868;11.892;2023-12-28T09:44:24;4.80;99.90
5200;DHT22;2619;47.868;11.892;2023-12-28T09:46:50;5.00;99.90
5200;DHT22;2619;47.868;11.892;2023-12-28T09:49:20;5.10;99.90
5200;DHT22;2619;47.868;11.892;2023-12-28T09:51:47;5.20;99.90
5200;DHT22;2619;47.868;11.892;2023-12-28T09:54:12;5.30;99.90
5200;DHT22;2619;47.868;11.892;2023-12-28T09:56:39;5.50;99.90
5200;DHT22;2619;47.868;11.892;2023-12-28T09:59:06;5.50;99.90
5200;DHT22;2619;47.868;11.892;2023-12-28T10:01:34;5.70;99.90
5200;DHT22;2619;47.868;11.892;2023-12-28T10:03:59;5.90;99.90
5200;DHT22;2619;47.868;11.892;2023-12-28T10:06:25;6.10;99.90
5200;DHT22;2619;47.868;11.892;2023-12-28T10:08:51;6.40;99.90
5200;DHT22;2619;47.868;11.892;2023-12-28T10:11:18;6.60;99.90
5200;DHT22;2619;47.868;11.892;2023-12-28T10:13:44;6.70;99.90
5200;DHT22;2619;47.868;11.892;2023-12-28T10:16:13;6.90;99.90
5200;DHT22;2619;47.868;11.892;2023-12-28T10:18:42;6.80;99.90
5200;DHT22;2619;47.868;11.892;2023-12-28T10:21:08;6.70;99.90
5200;DHT22;2619;47.868;11.892;2023-12-28T10:23:34;6.80;99.90
5200;DHT22;2619;47.868;11.892;2023-12-28T10:26:00;6.80;99.90
5200;DHT22;2619;47.868;11.892;2023-12-28T10:28:26;7.00;99.90
5200;DHT22;2619;47.868;11.892;2023-12-28T10:30:55;7.40;99.90
5200;DHT22;2619;47.868;11.892;2023-12-28T10:33:24;7.60;99.90
5200;DHT22;2619;47.868;11.892;2023-12-28T10:35:51;7.70;99.90
5200;DHT22;2619;47.868;11.892;2023-12-28T10:38:17;7.80;99.90
5200;DHT22;2619;47.868;11.892;2023-12-28T10:40:44;8.00;99.90
5200;DHT22;2619;47.868;11.892;2023-12-28T10:43:14;8.00;99.90
5200;DHT22;2619;47.868;11.892;2023-12-28T10:45:41;8.10;99.90
5200;DHT22;2619;47.868;11.892;2023-12-28T10:48:10;8.30;99.90
5200;DHT22;2619;47.868;11.892;2023-12-28T10:50:40;8.10;99.90
5200;DHT22;2619;47.868;11.892;2023-12-28T10:53:21;7.90;99.90
5200;DHT22;2619;47.868;11.892;2023-12-28T11:01:28;8.50;99.90
5200;DHT22;2619;47.868;11.892;2023-12-28T11:04:10;8.60;99.90
5200;DHT22;2619;47.868;11.892;2023-12-28T11:06:42;8.70;99.90
5200;DHT22;2619;47.868;11.892;2023-12-28T11:09:09;8.60;99.90
5200;DHT22;2619;47.868;11.892;2023-12-28T11:11:36;8.60;99.90
5200;DHT22;2619;47.868;11.892;2023-12-28T11:14:02;8.50;99.90
5200;DHT22;2619;47.868;11.892;2023-12-28T11:16:29;8.40;99.90
5200;DHT22;2619;47.868;11.892;2023-12-28T11:18:56;8.20;99.90
5200;DHT22;2619;47.868;11.892;2023-12-28T11:21:22;8.10;99.90
5200;DHT22;2619;47.868;11.892;2023-12-28T11:23:48;8.30;99.90
5200;DHT22;2619;47.868;11.892;2023-12-28T11:26:19;8.60;99.90
5200;DHT22;2619;47.868;11.892;2023-12-28T11:28:45;8.70;99.90
5200;DHT22;2619;47.868;11.892;2023-12-28T11:31:14;8.80;99.90
5200;DHT22;2619;47.868;11.892;2023-12-28T11:36:10;9.00;99.90
5200;DHT22;2619;47.868;11.892;2023-12-28T11:38:37;9.00;99.90
5200;DHT22;2619;47.868;11.892;2023-12-28T11:41:04;9.10;99.90
5200;DHT22;2619;47.868;11.892;2023-12-28T11:43:29;9.10;99.90
5200;DHT22;2619;47.868;11.892;2023-12-28T11:46:00;9.20;99.90
5200;DHT22;2619;47.868;11.892;2023-12-28T11:48:26;9.50;99.90
5200;DHT22;2619;47.868;11.892;2023-12-28T11:50:58;9.60;99.90
5200;DHT22;2619;47.868;11.892;2023-12-28T11:53:24;9.70;99.90
5200;DHT22;2619;47.868;11.892;2023-12-28T11:55:50;9.80;99.90
5200;DHT22;2619;47.868;11.892;2023-12-28T11:58:17;9.80;99.90
5200;DHT22;2619;47.868;11.892;2023-12-28T12:00:43;9.80;99.90
5200;DHT22;2619;47.868;11.892;2023-12-28T12:03:12;9.90;99.90
5200;DHT22;2619;47.868;11.892;2023-12-28T12:05:38;10.00;99.90
5200;DHT22;2619;47.868;11.892;2023-12-28T12:08:06;9.60;99.90
5200;DHT22;2619;47.868;11.892;2023-12-28T12:10:34;9.30;99.90
5200;DHT22;2619;47.868;11.892;2023-12-28T12:13:00;9.30;99.90
5200;DHT22;2619;47.868;11.892;2023-12-28T12:15:28;9.10;99.90
5200;DHT22;2619;47.868;11.892;2023-12-28T12:17:54;9.00;99.90
5200;DHT22;2619;47.868;11.892;2023-12-28T12:20:20;8.90;99.90
5200;DHT22;2619;47.868;11.892;2023-12-28T12:22:46;8.60;99.90
5200;DHT22;2619;47.868;11.892;2023-12-28T12:25:12;8.80;99.90
5200;DHT22;2619;47.868;11.892;2023-12-28T12:27:37;9.10;99.90
5200;DHT22;2619;47.868;11.892;2023-12-28T12:30:06;9.20;99.90
5200;DHT22;2619;47.868;11.892;2023-12-28T12:32:33;9.30;99.90
5200;DHT22;2619;47.868;11.892;2023-12-28T12:34:59;9.40;99.90
5200;DHT22;2619;47.868;11.892;2023-12-28T12:37:25;9.40;99.90
5200;DHT22;2619;47.868;11.892;2023-12-28T12:39:52;9.50;99.90
5200;DHT22;2619;47.868;11.892;2023-12-28T12:42:19;9.50;99.90
5200;DHT22;2619;47.868;11.892;2023-12-28T12:44:45;9.60;99.90
5200;DHT22;2619;47.868;11.892;2023-12-28T12:47:12;9.60;99.90
5200;DHT22;2619;47.868;11.892;2023-12-28T12:49:38;9.60;99.90
5200;DHT22;2619;47.868;11.892;2023-12-28T12:52:04;9.40;99.90
5200;DHT22;2619;47.868;11.892;2023-12-28T12:54:32;9.30;99.90
5200;DHT22;2619;47.868;11.892;2023-12-28T12:56:57;9.10;99.90
5200;DHT22;2619;47.868;11.892;2023-12-28T12:59:24;8.90;99.90
5200;DHT22;2619;47.868;11.892;2023-12-28T13:01:51;8.90;99.90
5200;DHT22;2619;47.868;11.892;2023-12-28T13:04:18;9.00;99.90
5200;DHT22;2619;47.868;11.892;2023-12-28T13:06:44;9.20;99.90
5200;DHT22;2619;47.868;11.892;2023-12-28T13:09:10;9.10;99.90
5200;DHT22;2619;47.868;11.892;2023-12-28T13:11:37;9.10;99.90
5200;DHT22;2619;47.868;11.892;2023-12-28T13:14:03;9.10;99.90
5200;DHT22;2619;47.868;11.892;2023-12-28T13:16:30;9.00;99.90
5200;DHT22;2619;47.868;11.892;2023-12-28T13:18:55;9.10;99.90
5200;DHT22;2619;47.868;11.892;2023-12-28T13:21:21;9.10;99.90
5200;DHT22;2619;47.868;11.892;2023-12-28T13:23:47;9.10;99.90
5200;DHT22;2619;47.868;11.892;2023-12-28T13:26:12;9.10;99.90
5200;DHT22;2619;47.868;11.892;2023-12-28T13:28:38;9.10;99.90
5200;DHT22;2619;47.868;11.892;2023-12-28T13:31:03;9.10;99.90
5200;DHT22;2619;47.868;11.892;2023-12-28T13:33:29;9.00;99.90
5200;DHT22;2619;47.868;11.892;2023-12-28T13:35:55;9.00;99.90
5200;DHT22;2619;47.868;11.892;2023-12-28T13:38:20;8.90;99.90
5200;DHT22;2619;47.868;11.892;2023-12-28T13:40:46;8.90;99.90
5200;DHT22;2619;47.868;11.892;2023-12-28T13:43:12;8.90;99.90
5200;DHT22;2619;47.868;11.892;2023-12-28T13:45:38;9.00;99.90
5200;DHT22;2619;47.868;11.892;2023-12-28T13:48:03;9.00;99.90
5200;DHT22;2619;47.868;11.892;2023-12-28T13:50:29;8.90;99.90
5200;DHT22;2619;47.868;11.892;2023-12-28T13:52:56;8.80;99.90
5200;DHT22;2619;47.868;11.892;2023-12-28T13:55:21;8.70;99.90
5200;DHT22;2619;47.868;11.892;2023-12-28T13:57:47;8.60;99.90
5200;DHT22;2619;47.868;11.892;2023-12-28T14:00:13;8.60;99.90
5200;DHT22;2619;47.868;11.892;2023-12-28T14:02:39;8.60;99.90
5200;DHT22;2619;47.868;11.892;2023-12-28T14:05:06;8.70;99.90
5200;DHT22;2619;47.868;11.892;2023-12-28T14:07:31;8.60;99.90
5200;DHT22;2619;47.868;11.892;2023-12-28T14:09:58;8.40;99.90
5200;DHT22;2619;47.868;11.892;2023-12-28T14:12:24;8.40;99.90
5200;DHT22;2619;47.868;11.892;2023-12-28T14:14:49;8.40;99.90
5200;DHT22;2619;47.868;11.892;2023-12-28T14:17:15;8.40;99.90
5200;DHT22;2619;47.868;11.892;2023-12-28T14:19:45;8.30;99.90
5200;DHT22;2619;47.868;11.892;2023-12-28T14:22:11;8.20;99.90
5200;DHT22;2619;47.868;11.892;2023-12-28T14:24:37;8.10;99.90
5200;DHT22;2619;47.868;11.892;2023-12-28T14:27:03;8.10;99.90
5200;DHT22;2619;47.868;11.892;2023-12-28T14:29:29;8.00;99.90
5200;DHT22;2619;47.868;11.892;2023-12-28T14:31:55;7.90;99.90
5200;DHT22;2619;47.868;11.892;2023-12-28T14:34:21;7.80;99.90
5200;DHT22;2619;47.868;11.892;2023-12-28T14:36:48;7.60;99.90
5200;DHT22;2619;47.868;11.892;2023-12-28T14:39:16;7.60;99.90
5200;DHT22;2619;47.868;11.892;2023-12-28T14:41:45;7.60;99.90
5200;DHT22;2619;47.868;11.892;2023-12-28T14:44:11;7.60;99.90
5200;DHT22;2619;47.868;11.892;2023-12-28T14:46:36;7.60;99.90
5200;DHT22;2619;47.868;11.892;2023-12-28T14:49:02;7.50;99.90
5200;DHT22;2619;47.868;11.892;2023-12-28T14:51:29;7.40;99.90
5200;DHT22;2619;47.868;11.892;2023-12-28T14:53:55;7.20;99.90
5200;DHT22;2619;47.868;11.892;2023-12-28T14:56:20;7.10;99.90
5200;DHT22;2619;47.868;11.892;2023-12-28T14:58:46;7.10;99.90
5200;DHT22;2619;47.868;11.892;2023-12-28T15:01:14;7.00;99.90
5200;DHT22;2619;47.868;11.892;2023-12-28T15:03:40;7.00;99.90
5200;DHT22;2619;47.868;11.892;2023-12-28T15:06:06;7.10;99.90
5200;DHT22;2619;47.868;11.892;2023-12-28T15:08:31;7.00;99.90
5200;DHT22;2619;47.868;11.892;2023-12-28T15:10:57;6.90;99.90
5200;DHT22;2619;47.868;11.892;2023-12-28T15:13:23;6.90;99.90
5200;DHT22;2619;47.868;11.892;2023-12-28T15:15:49;7.00;99.90
5200;DHT22;2619;47.868;11.892;2023-12-28T15:18:17;6.90;99.90
5200;DHT22;2619;47.868;11.892;2023-12-28T15:20:46;6.80;99.90
5200;DHT22;2619;47.868;11.892;2023-12-28T15:23:16;6.60;99.90
5200;DHT22;2619;47.868;11.892;2023-12-28T15:25:42;6.60;99.90
5200;DHT22;2619;47.868;11.892;2023-12-28T15:28:08;6.50;99.90
5200;DHT22;2619;47.868;11.892;2023-12-28T15:30:33;6.50;99.90
5200;DHT22;2619;47.868;11.892;2023-12-28T15:33:00;6.40;99.90
5200;DHT22;2619;47.868;11.892;2023-12-28T15:35:25;6.30;99.90
5200;DHT22;2619;47.868;11.892;2023-12-28T15:37:51;6.30;99.90
5200;DHT22;2619;47.868;11.892;2023-12-28T15:40:16;6.30;99.90
5200;DHT22;2619;47.868;11.892;2023-12-28T15:42:42;6.20;99.90
5200;DHT22;2619;47.868;11.892;2023-12-28T15:45:08;6.10;99.90
5200;DHT22;2619;47.868;11.892;2023-12-28T15:47:33;6.00;99.90
5200;DHT22;2619;47.868;11.892;2023-12-28T15:49:59;5.90;99.90
5200;DHT22;2619;47.868;11.892;2023-12-28T15:52:27;5.90;99.90
5200;DHT22;2619;47.868;11.892;2023-12-28T15:54:53;5.80;99.90
5200;DHT22;2619;47.868;11.892;2023-12-28T15:57:18;5.90;99.90